Time;durP1;ratioP1;P1;durP2;ratioP2;P2;SDS_P1;SDS_P2;PMS_P1;PMS_P2;Temp;Humidity;BMP_temperature;BMP_pressure;BME280_temperature;BME280_humidity;BME280_pressure;Samples;Min_cycle;Max_cycle;Signal;HPM_P1;HPM_P2
2021/10/05 00:00:17;;;;;;;4.27;3.87;;;;;;;;;;5125038;27;24528;-62
2021/10/05 00:02:42;;;;;;;4.10;3.80;;;;;;;;;;5124898;27;24421;-61
2021/10/05 00:05:08;;;;;;;4.70;4.30;;;;;;;;;;5127063;27;24420;-60
2021/10/05 00:07:33;;;;;;;4.70;4.20;;;;;;;;;;5125809;28;24436;-60
2021/10/05 00:09:58;;;;;;;4.10;3.80;;;;;;;;;;5126697;28;24417;-59
2021/10/05 00:12:23;;;;;;;4.47;4.07;;;;;;;;;;5127332;28;24417;-60
2021/10/05 00:14:50;;;;;;;4.50;4.20;;;;;;;;;;5126940;28;24803;-60
2021/10/05 00:17:16;;;;;;;4.70;4.40;;;;;;;;;;5126988;27;24984;-62
2021/10/05 00:19:41;;;;;;;4.50;4.20;;;;;;;;;;5126449;28;24425;-59
2021/10/05 00:22:06;;;;;;;4.93;4.53;;;;;;;;;;5126478;28;24413;-59
2021/10/05 00:24:31;;;;;;;4.60;4.20;;;;;;;;;;5126563;28;24820;-61
2021/10/05 00:26:56;;;;;;;4.67;4.27;;;;;;;;;;5127876;28;24489;-59
2021/10/05 00:29:21;;;;;;;5.30;4.90;;;;;;;;;;5126043;28;24466;-60
2021/10/05 00:31:47;;;;;;;4.70;4.30;;;;;;;;;;5126600;28;24415;-59
2021/10/05 00:34:12;;;;;;;3.90;3.60;;;;;;;;;;5127016;28;24453;-59
2021/10/05 00:36:37;;;;;;;4.60;4.20;;;;;;;;;;5126510;28;25031;-59
2021/10/05 00:39:04;;;;;;;5.27;4.77;;;;;;;;;;5127056;28;24449;-59
2021/10/05 00:41:29;;;;;;;4.22;3.92;;;;;;;;;;5126513;28;24412;-59
2021/10/05 00:43:57;;;;;;;4.40;4.10;;;;;;;;;;5126473;28;24405;-59
2021/10/05 00:46:22;;;;;;;4.53;4.13;;;;;;;;;;5126411;28;24613;-59
2021/10/05 00:48:48;;;;;;;5.10;4.60;;;;;;;;;;5127273;28;24928;-59
2021/10/05 00:51:13;;;;;;;5.10;4.70;;;;;;;;;;5126072;28;24456;-59
2021/10/05 00:53:39;;;;;;;4.40;4.10;;;;;;;;;;5122762;27;25034;-59
2021/10/05 00:56:04;;;;;;;4.40;4.10;;;;;;;;;;5131077;27;24946;-59
2021/10/05 00:58:29;;;;;;;4.90;4.50;;;;;;;;;;5130025;27;24432;-59
2021/10/05 01:00:54;;;;;;;4.82;4.35;;;;;;;;;;5130484;27;24492;-59
2021/10/05 01:03:19;;;;;;;4.70;4.30;;;;;;;;;;5127520;27;24979;-59
2021/10/05 01:05:44;;;;;;;5.10;4.70;;;;;;;;;;5129982;27;24409;-59
2021/10/05 01:08:10;;;;;;;5.15;4.78;;;;;;;;;;5130219;27;24477;-59
2021/10/05 01:10:35;;;;;;;5.33;4.93;;;;;;;;;;5130909;27;24757;-58
2021/10/05 01:13:00;;;;;;;4.38;4.03;;;;;;;;;;5129731;27;24427;-59
2021/10/05 01:15:27;;;;;;;4.50;4.10;;;;;;;;;;5130406;27;24416;-59
2021/10/05 01:17:53;;;;;;;4.10;3.80;;;;;;;;;;5129999;27;24844;-59
2021/10/05 01:20:18;;;;;;;5.00;4.60;;;;;;;;;;5130334;27;24914;-59
2021/10/05 01:22:43;;;;;;;5.00;4.60;;;;;;;;;;5129216;27;24433;-58
2021/10/05 01:25:11;;;;;;;5.32;4.82;;;;;;;;;;5130444;27;24408;-59
2021/10/05 01:27:54;;;;;;;5.15;4.70;;;;;;;;;;5121355;27;24413;-61
2021/10/05 01:30:21;;;;;;;5.20;4.80;;;;;;;;;;5128124;27;24565;-62
2021/10/05 01:32:46;;;;;;;5.75;5.35;;;;;;;;;;5129831;27;25030;-61
2021/10/05 01:35:12;;;;;;;5.25;4.75;;;;;;;;;;5130333;27;24668;-61
2021/10/05 01:37:37;;;;;;;5.07;4.67;;;;;;;;;;5126379;27;24769;-61
2021/10/05 01:40:03;;;;;;;5.00;4.60;;;;;;;;;;5124196;27;24594;-61
2021/10/05 01:42:29;;;;;;;4.85;4.45;;;;;;;;;;5129811;27;24453;-61
2021/10/05 01:44:55;;;;;;;4.67;4.30;;;;;;;;;;5119220;27;25024;-61
2021/10/05 01:47:20;;;;;;;4.63;4.23;;;;;;;;;;5128972;27;24424;-61
2021/10/05 01:49:45;;;;;;;5.75;5.25;;;;;;;;;;5129186;27;24829;-61
2021/10/05 01:52:10;;;;;;;5.80;5.30;;;;;;;;;;5120028;27;24425;-59
2021/10/05 01:54:36;;;;;;;5.32;4.93;;;;;;;;;;5123056;27;24408;-60
2021/10/05 01:57:01;;;;;;;5.80;5.30;;;;;;;;;;5128447;27;24423;-59
2021/10/05 01:59:26;;;;;;;6.37;5.30;;;;;;;;;;5121630;27;24504;-60
2021/10/05 02:01:51;;;;;;;7.00;6.40;;;;;;;;;;5125517;27;24521;-60
2021/10/05 02:04:17;;;;;;;7.33;6.50;;;;;;;;;;5121794;27;24968;-60
2021/10/05 02:06:42;;;;;;;6.68;6.10;;;;;;;;;;5129918;27;24416;-60
2021/10/05 02:09:08;;;;;;;6.60;6.00;;;;;;;;;;5129524;27;24431;-60
2021/10/05 02:11:33;;;;;;;6.32;5.82;;;;;;;;;;5123466;27;24429;-60
2021/10/05 02:13:58;;;;;;;5.67;5.27;;;;;;;;;;5122838;27;24838;-60
2021/10/05 02:16:23;;;;;;;5.40;5.00;;;;;;;;;;5123734;27;24412;-60
2021/10/05 02:18:49;;;;;;;5.40;5.00;;;;;;;;;;5115569;27;24425;-60
2021/10/05 02:21:14;;;;;;;5.80;5.30;;;;;;;;;;5121147;27;24487;-60
2021/10/05 02:26:25;;;;;;;5.80;5.30;;;;;;;;;;5086079;27;25204;-60
2021/10/05 02:28:50;;;;;;;5.50;4.80;;;;;;;;;;5124198;27;24434;-60
2021/10/05 02:31:15;;;;;;;5.07;4.65;;;;;;;;;;5128533;27;24408;-60
2021/10/05 02:33:41;;;;;;;4.80;4.30;;;;;;;;;;5129296;27;24405;-60
2021/10/05 02:36:06;;;;;;;5.50;5.00;;;;;;;;;;5128592;27;25202;-60
2021/10/05 02:38:31;;;;;;;5.93;5.43;;;;;;;;;;5128743;27;24432;-60
2021/10/05 02:40:56;;;;;;;5.13;4.72;;;;;;;;;;5128294;27;25012;-60
2021/10/05 02:43:21;;;;;;;5.10;4.70;;;;;;;;;;5129122;27;24711;-60
2021/10/05 02:45:46;;;;;;;5.60;5.10;;;;;;;;;;5123838;27;24405;-60
2021/10/05 02:48:11;;;;;;;5.10;4.70;;;;;;;;;;5108636;28;24405;-61
2021/10/05 02:50:36;;;;;;;5.10;4.70;;;;;;;;;;5117129;27;24408;-60
2021/10/05 02:53:02;;;;;;;5.50;5.00;;;;;;;;;;5118976;27;24461;-60
2021/10/05 02:55:27;;;;;;;4.88;4.47;;;;;;;;;;5128101;27;24969;-60
2021/10/05 02:57:52;;;;;;;4.70;4.30;;;;;;;;;;5128506;27;24401;-60
2021/10/05 03:00:17;;;;;;;4.45;4.15;;;;;;;;;;5128517;27;24478;-60
2021/10/05 03:02:42;;;;;;;4.25;3.90;;;;;;;;;;5128504;27;24449;-60
2021/10/05 03:05:07;;;;;;;4.53;4.22;;;;;;;;;;5119711;27;24401;-61
2021/10/05 03:07:33;;;;;;;5.60;5.20;;;;;;;;;;5128840;27;24457;-60
2021/10/05 03:09:58;;;;;;;5.40;4.90;;;;;;;;;;5127857;27;24935;-60
2021/10/05 03:12:24;;;;;;;4.57;4.17;;;;;;;;;;5124194;27;24413;-60
2021/10/05 03:14:50;;;;;;;3.80;3.50;;;;;;;;;;5122874;27;24412;-60
2021/10/05 03:17:15;;;;;;;4.03;3.63;;;;;;;;;;5117639;27;24421;-60
2021/10/05 03:19:40;;;;;;;4.57;4.18;;;;;;;;;;5128492;27;24443;-60
2021/10/05 03:22:05;;;;;;;4.00;3.60;;;;;;;;;;5125779;27;24408;-60
2021/10/05 03:24:30;;;;;;;4.80;4.30;;;;;;;;;;5122990;27;24486;-60
2021/10/05 03:26:56;;;;;;;4.68;4.38;;;;;;;;;;5126129;27;24393;-59
2021/10/05 03:29:21;;;;;;;4.97;4.50;;;;;;;;;;5125224;27;24736;-60
2021/10/05 03:31:46;;;;;;;4.45;4.05;;;;;;;;;;5115199;27;24424;-59
2021/10/05 03:34:11;;;;;;;4.70;4.30;;;;;;;;;;5127638;27;24520;-60
2021/10/05 03:36:36;;;;;;;4.80;4.40;;;;;;;;;;5127223;27;24819;-60
2021/10/05 03:39:02;;;;;;;4.70;4.30;;;;;;;;;;5127785;27;24807;-60
2021/10/05 03:41:30;;;;;;;5.10;4.70;;;;;;;;;;5126088;27;24461;-59
2021/10/05 03:43:55;;;;;;;5.82;5.00;;;;;;;;;;5126112;27;24432;-59
2021/10/05 03:46:21;;;;;;;6.38;5.78;;;;;;;;;;5119707;27;24496;-59
2021/10/05 03:48:46;;;;;;;5.40;5.00;;;;;;;;;;5110874;27;24421;-60
2021/10/05 03:51:11;;;;;;;5.15;4.75;;;;;;;;;;5111631;27;24766;-60
2021/10/05 03:53:36;;;;;;;5.03;4.63;;;;;;;;;;5123657;27;24420;-60
2021/10/05 03:56:01;;;;;;;6.30;5.70;;;;;;;;;;5126810;27;24417;-60
2021/10/05 03:58:27;;;;;;;5.67;5.07;;;;;;;;;;5127620;27;24925;-60
2021/10/05 04:00:52;;;;;;;5.40;5.00;;;;;;;;;;5126919;27;24500;-60
2021/10/05 04:03:17;;;;;;;5.80;5.40;;;;;;;;;;5127321;27;24814;-60
2021/10/05 04:05:43;;;;;;;6.00;5.50;;;;;;;;;;5127008;27;24401;-60
2021/10/05 04:08:11;;;;;;;6.20;5.60;;;;;;;;;;5126883;28;24793;-60
2021/10/05 04:10:37;;;;;;;6.18;5.68;;;;;;;;;;5126947;28;24428;-61
2021/10/05 04:13:02;;;;;;;5.67;5.17;;;;;;;;;;5126769;28;24509;-59
2021/10/05 04:15:28;;;;;;;5.37;4.50;;;;;;;;;;5126695;28;24793;-59
2021/10/05 04:17:53;;;;;;;5.50;5.00;;;;;;;;;;5127099;28;24397;-60
2021/10/05 04:20:18;;;;;;;5.45;4.97;;;;;;;;;;5126316;28;24558;-60
2021/10/05 04:22:43;;;;;;;4.50;4.20;;;;;;;;;;5126389;28;24563;-59
2021/10/05 04:25:09;;;;;;;4.93;4.53;;;;;;;;;;5119570;28;25302;-59
2021/10/05 04:27:34;;;;;;;5.07;4.60;;;;;;;;;;5113451;27;24416;-59
2021/10/05 04:30:00;;;;;;;4.82;4.43;;;;;;;;;;5123360;27;24938;-59
2021/10/05 04:32:25;;;;;;;4.90;4.50;;;;;;;;;;5126811;27;24420;-59
2021/10/05 04:34:50;;;;;;;4.40;4.10;;;;;;;;;;5122590;27;24447;-60
2021/10/05 04:37:16;;;;;;;5.00;4.60;;;;;;;;;;5119887;27;25009;-59
2021/10/05 04:39:41;;;;;;;5.10;4.70;;;;;;;;;;5124167;27;24427;-59
2021/10/05 04:42:06;;;;;;;4.90;4.50;;;;;;;;;;5119018;27;24848;-59
2021/10/05 04:44:31;;;;;;;6.00;5.50;;;;;;;;;;5124348;27;25423;-60
2021/10/05 04:46:56;;;;;;;5.47;5.07;;;;;;;;;;5125754;27;24979;-59
2021/10/05 04:49:22;;;;;;;5.20;4.70;;;;;;;;;;5128224;27;24415;-60
2021/10/05 04:51:47;;;;;;;5.10;4.70;;;;;;;;;;5123096;27;25115;-60
2021/10/05 04:54:12;;;;;;;5.60;5.10;;;;;;;;;;5125896;27;24508;-60
2021/10/05 04:56:37;;;;;;;5.57;5.07;;;;;;;;;;5122131;27;24400;-60
2021/10/05 04:59:02;;;;;;;5.90;5.40;;;;;;;;;;5118372;27;24444;-59
2021/10/05 05:01:28;;;;;;;6.40;5.90;;;;;;;;;;5118913;27;24975;-59
2021/10/05 05:03:53;;;;;;;5.93;5.43;;;;;;;;;;5119964;27;24508;-59
2021/10/05 05:06:18;;;;;;;5.60;5.20;;;;;;;;;;5124151;27;24417;-59
2021/10/05 05:08:43;;;;;;;6.27;5.77;;;;;;;;;;5121872;27;24456;-59
2021/10/05 05:11:08;;;;;;;5.57;5.17;;;;;;;;;;5122256;27;24440;-59
2021/10/05 05:13:33;;;;;;;6.45;5.85;;;;;;;;;;5120178;27;24389;-59
2021/10/05 05:15:58;;;;;;;6.13;5.63;;;;;;;;;;5119041;27;24841;-59
2021/10/05 05:18:24;;;;;;;6.60;6.00;;;;;;;;;;5128248;27;24458;-60
2021/10/05 05:20:49;;;;;;;6.73;6.23;;;;;;;;;;5124481;27;24428;-59
2021/10/05 05:23:14;;;;;;;6.30;5.80;;;;;;;;;;5119855;27;24431;-59
2021/10/05 05:25:39;;;;;;;6.70;6.20;;;;;;;;;;5120422;27;24983;-59
2021/10/05 05:28:04;;;;;;;6.40;5.90;;;;;;;;;;5124128;27;24405;-59
2021/10/05 05:30:30;;;;;;;5.80;5.40;;;;;;;;;;5126280;27;24795;-59
2021/10/05 05:32:55;;;;;;;6.25;5.65;;;;;;;;;;5124555;27;24568;-59
2021/10/05 05:35:20;;;;;;;6.10;5.60;;;;;;;;;;5124392;27;25017;-59
2021/10/05 05:37:45;;;;;;;6.37;5.87;;;;;;;;;;5120403;27;24493;-59
2021/10/05 05:40:11;;;;;;;6.65;6.05;;;;;;;;;;5123519;27;24831;-59
2021/10/05 05:42:36;;;;;;;6.10;5.70;;;;;;;;;;5122361;27;24392;-59
2021/10/05 05:45:01;;;;;;;6.33;5.80;;;;;;;;;;5125972;27;24420;-59
2021/10/05 05:47:27;;;;;;;6.20;5.70;;;;;;;;;;5124420;27;24399;-60
2021/10/05 05:49:52;;;;;;;7.47;6.80;;;;;;;;;;5120489;27;24401;-59
2021/10/05 05:52:17;;;;;;;7.07;6.45;;;;;;;;;;5121812;27;24434;-59
2021/10/05 05:54:43;;;;;;;6.80;6.20;;;;;;;;;;5119624;27;25201;-59
2021/10/05 05:57:08;;;;;;;7.15;6.50;;;;;;;;;;5125099;27;24471;-57
2021/10/05 05:59:33;;;;;;;6.63;5.93;;;;;;;;;;5127625;27;24544;-58
2021/10/05 06:01:58;;;;;;;6.90;6.30;;;;;;;;;;5129113;27;24470;-57
2021/10/05 06:04:24;;;;;;;6.33;5.83;;;;;;;;;;5129334;27;24809;-58
2021/10/05 06:06:49;;;;;;;6.70;6.15;;;;;;;;;;5125092;27;24405;-58
2021/10/05 06:09:16;;;;;;;6.47;5.97;;;;;;;;;;5108782;28;24463;-59
2021/10/05 06:11:42;;;;;;;6.55;5.95;;;;;;;;;;5109117;28;24933;-58
2021/10/05 06:14:07;;;;;;;7.18;6.47;;;;;;;;;;5110780;27;25023;-58
2021/10/05 06:16:32;;;;;;;6.47;5.87;;;;;;;;;;5125117;27;24454;-58
2021/10/05 06:18:57;;;;;;;6.80;6.20;;;;;;;;;;5125988;27;24420;-58
2021/10/05 06:21:22;;;;;;;6.53;5.93;;;;;;;;;;5124383;27;24466;-58
2021/10/05 06:23:47;;;;;;;6.50;5.90;;;;;;;;;;5125595;27;24424;-58
2021/10/05 06:26:13;;;;;;;6.63;6.03;;;;;;;;;;5115252;27;24622;-59
2021/10/05 06:28:38;;;;;;;6.00;5.50;;;;;;;;;;5124998;27;24419;-58
2021/10/05 06:31:04;;;;;;;6.15;5.65;;;;;;;;;;5125302;27;24414;-58
2021/10/05 06:33:29;;;;;;;6.47;5.97;;;;;;;;;;5121023;27;24529;-58
2021/10/05 06:35:54;;;;;;;6.07;5.57;;;;;;;;;;5124071;27;24948;-58
2021/10/05 06:38:19;;;;;;;6.00;5.50;;;;;;;;;;5124322;27;24435;-58
2021/10/05 06:40:45;;;;;;;6.40;5.90;;;;;;;;;;5102887;28;24400;-58
2021/10/05 06:43:10;;;;;;;6.32;5.82;;;;;;;;;;5117512;27;24413;-58
2021/10/05 06:45:36;;;;;;;6.10;5.60;;;;;;;;;;5110300;27;24398;-58
2021/10/05 06:48:01;;;;;;;6.10;5.60;;;;;;;;;;5119904;27;25004;-58
2021/10/05 06:50:27;;;;;;;7.97;6.00;;;;;;;;;;5117699;27;24769;-59
2021/10/05 06:52:52;;;;;;;6.60;6.00;;;;;;;;;;5122460;27;24445;-59
2021/10/05 06:55:18;;;;;;;6.20;5.70;;;;;;;;;;5126994;27;24922;-59
2021/10/05 06:57:43;;;;;;;6.57;5.97;;;;;;;;;;5120601;27;24417;-60
2021/10/05 07:00:15;;;;;;;7.07;6.38;;;;;;;;;;5120225;27;24409;-62
2021/10/05 07:02:42;;;;;;;6.00;5.50;;;;;;;;;;5121377;27;24480;-62
2021/10/05 07:05:08;;;;;;;6.10;5.60;;;;;;;;;;5124411;27;24393;-61
2021/10/05 07:07:36;;;;;;;5.40;5.00;;;;;;;;;;5124312;27;24386;-61
2021/10/05 07:10:01;;;;;;;5.72;5.13;;;;;;;;;;5122480;27;24419;-61
2021/10/05 07:12:26;;;;;;;6.70;6.10;;;;;;;;;;5121161;27;24393;-61
2021/10/05 07:14:51;;;;;;;5.80;5.30;;;;;;;;;;5118390;27;24384;-61
2021/10/05 07:17:16;;;;;;;5.68;5.28;;;;;;;;;;5122416;27;24393;-62
2021/10/05 07:19:42;;;;;;;5.60;5.10;;;;;;;;;;5122554;27;24424;-61
2021/10/05 07:22:07;;;;;;;5.20;4.80;;;;;;;;;;5123841;27;25173;-62
2021/10/05 07:24:32;;;;;;;5.13;4.73;;;;;;;;;;5124631;27;24949;-62
2021/10/05 07:26:57;;;;;;;5.70;5.23;;;;;;;;;;5120523;27;24929;-61
2021/10/05 07:29:22;;;;;;;5.80;5.30;;;;;;;;;;5119081;27;24389;-61
2021/10/05 07:31:48;;;;;;;5.83;5.33;;;;;;;;;;5118975;27;24783;-61
2021/10/05 07:34:13;;;;;;;7.68;6.97;;;;;;;;;;5123098;27;24509;-62
2021/10/05 07:36:38;;;;;;;6.72;6.13;;;;;;;;;;5122281;27;24792;-62
2021/10/05 07:39:03;;;;;;;7.50;6.90;;;;;;;;;;5123856;27;24405;-61
2021/10/05 07:41:29;;;;;;;6.80;6.10;;;;;;;;;;5122562;27;24394;-61
2021/10/05 07:43:54;;;;;;;6.90;6.20;;;;;;;;;;5117897;27;24488;-60
2021/10/05 07:46:20;;;;;;;9.30;8.35;;;;;;;;;;5118487;27;24393;-61
2021/10/05 07:48:45;;;;;;;7.43;6.70;;;;;;;;;;5122105;27;24392;-59
2021/10/05 07:51:11;;;;;;;6.60;6.00;;;;;;;;;;5124047;27;24757;-58
2021/10/05 07:53:36;;;;;;;6.57;6.07;;;;;;;;;;5124057;27;24420;-59
2021/10/05 07:56:01;;;;;;;7.00;6.40;;;;;;;;;;5119816;27;24537;-59
2021/10/05 07:58:27;;;;;;;6.63;6.13;;;;;;;;;;5120119;27;24467;-60
2021/10/05 08:00:52;;;;;;;6.80;6.30;;;;;;;;;;5118489;27;24523;-60
2021/10/05 08:03:17;;;;;;;6.72;6.13;;;;;;;;;;5120728;27;24942;-61
2021/10/05 08:05:42;;;;;;;6.30;5.80;;;;;;;;;;5123768;27;24439;-61
2021/10/05 08:08:08;;;;;;;6.50;5.90;;;;;;;;;;5123049;27;24533;-61
2021/10/05 08:10:37;;;;;;;5.72;4.93;;;;;;;;;;5124130;28;24666;-60
2021/10/05 08:13:02;;;;;;;7.50;6.80;;;;;;;;;;5118512;28;25328;-61
2021/10/05 08:15:28;;;;;;;6.53;6.03;;;;;;;;;;5118624;28;24732;-61
2021/10/05 08:17:54;;;;;;;6.60;6.00;;;;;;;;;;5119555;28;24404;-61
2021/10/05 08:20:20;;;;;;;6.50;5.90;;;;;;;;;;5121441;28;25014;-60
2021/10/05 08:22:45;;;;;;;6.15;5.63;;;;;;;;;;5122076;28;24408;-61
2021/10/05 08:25:10;;;;;;;8.50;7.70;;;;;;;;;;5123693;28;24749;-62
2021/10/05 08:27:35;;;;;;;7.32;6.72;;;;;;;;;;5119884;28;24438;-60
2021/10/05 08:30:00;;;;;;;6.20;5.70;;;;;;;;;;5117050;28;24409;-60
2021/10/05 08:32:25;;;;;;;8.82;8.02;;;;;;;;;;5118372;28;24408;-60
2021/10/05 08:34:51;;;;;;;6.83;6.27;;;;;;;;;;5123018;28;24830;-60
2021/10/05 08:37:16;;;;;;;5.80;5.30;;;;;;;;;;5123051;28;24416;-61
2021/10/05 08:39:41;;;;;;;6.93;6.32;;;;;;;;;;5121843;28;25177;-61
2021/10/05 08:42:06;;;;;;;6.80;6.20;;;;;;;;;;5117717;28;25066;-61
2021/10/05 08:44:32;;;;;;;7.07;6.47;;;;;;;;;;5119955;28;24435;-61
2021/10/05 08:46:57;;;;;;;6.28;5.78;;;;;;;;;;5121579;28;24753;-61
2021/10/05 08:49:22;;;;;;;5.90;5.40;;;;;;;;;;5123519;28;24407;-61
2021/10/05 08:51:48;;;;;;;6.70;6.00;;;;;;;;;;5121752;28;24428;-61
2021/10/05 08:54:14;;;;;;;5.32;4.93;;;;;;;;;;5119296;28;24499;-61
2021/10/05 08:56:41;;;;;;;5.00;4.60;;;;;;;;;;5118044;28;24813;-62
2021/10/05 08:59:06;;;;;;;6.20;5.70;;;;;;;;;;5121318;28;24444;-61
2021/10/05 09:01:34;;;;;;;5.60;5.20;;;;;;;;;;5123443;28;24933;-61
2021/10/05 09:04:00;;;;;;;6.13;5.63;;;;;;;;;;5121697;28;24390;-61
2021/10/05 09:06:25;;;;;;;5.87;5.37;;;;;;;;;;5121364;28;24508;-61
2021/10/05 09:08:51;;;;;;;6.70;6.20;;;;;;;;;;5118044;28;24413;-61
2021/10/05 09:11:17;;;;;;;7.43;6.73;;;;;;;;;;5119867;28;24401;-62
2021/10/05 09:13:45;;;;;;;7.72;7.10;;;;;;;;;;5121672;27;24819;-60
2021/10/05 09:16:21;;;;;;;7.57;6.88;;;;;;;;;;5126201;27;24778;-61
2021/10/05 09:18:55;;;;;;;7.57;6.97;;;;;;;;;;5124823;27;24431;-59
2021/10/05 09:21:21;;;;;;;6.63;6.13;;;;;;;;;;5121314;27;24757;-59
2021/10/05 09:23:51;;;;;;;7.47;6.85;;;;;;;;;;5121503;27;24370;-59
2021/10/05 09:26:16;;;;;;;7.97;7.28;;;;;;;;;;5124246;27;24413;-59
2021/10/05 09:28:41;;;;;;;8.00;7.30;;;;;;;;;;5123137;27;24388;-59
2021/10/05 09:31:07;;;;;;;7.45;6.75;;;;;;;;;;5126494;27;25258;-59
2021/10/05 09:33:32;;;;;;;8.50;7.80;;;;;;;;;;5124641;27;24389;-59
2021/10/05 09:35:58;;;;;;;8.67;7.93;;;;;;;;;;5120537;27;25117;-59
2021/10/05 09:38:24;;;;;;;9.55;8.65;;;;;;;;;;5120671;27;24404;-59
2021/10/05 09:41:03;;;;;;;9.90;9.00;;;;;;;;;;5126501;27;24960;-58
2021/10/05 09:43:29;;;;;;;9.40;8.55;;;;;;;;;;5126469;27;24393;-59
2021/10/05 09:46:06;;;;;;;8.60;7.70;;;;;;;;;;5124568;27;24404;-60
2021/10/05 09:48:31;;;;;;;8.27;7.57;;;;;;;;;;5121389;27;24397;-59
2021/10/05 09:50:56;;;;;;;8.27;7.50;;;;;;;;;;5122669;27;24400;-59
2021/10/05 09:53:22;;;;;;;8.00;7.20;;;;;;;;;;5124250;27;24584;-60
2021/10/05 09:55:47;;;;;;;9.30;8.45;;;;;;;;;;5124550;27;24394;-59
2021/10/05 09:58:15;;;;;;;8.03;7.33;;;;;;;;;;5125512;27;24389;-59
2021/10/05 10:00:42;;;;;;;9.07;8.27;;;;;;;;;;5122200;27;24478;-59
2021/10/05 10:03:07;;;;;;;9.50;8.60;;;;;;;;;;5119723;27;24948;-59
2021/10/05 10:05:36;;;;;;;8.63;7.93;;;;;;;;;;5120390;27;24401;-60
2021/10/05 10:08:02;;;;;;;9.63;8.73;;;;;;;;;;5123889;27;24386;-59
2021/10/05 10:10:30;;;;;;;10.67;9.63;;;;;;;;;;5125920;27;24427;-59
2021/10/05 10:12:57;;;;;;;10.07;9.13;;;;;;;;;;5123382;27;25168;-60
2021/10/05 10:15:24;;;;;;;10.50;9.50;;;;;;;;;;5122133;27;25034;-59
2021/10/05 10:17:49;;;;;;;9.07;8.18;;;;;;;;;;5119651;27;24573;-59
2021/10/05 10:20:24;;;;;;;8.73;7.87;;;;;;;;;;5122978;27;24769;-60
2021/10/05 10:22:50;;;;;;;9.63;8.73;;;;;;;;;;5123174;27;24409;-58
2021/10/05 10:25:33;;;;;;;10.43;9.43;;;;;;;;;;5124727;27;24937;-59
2021/10/05 10:28:10;;;;;;;10.27;9.27;;;;;;;;;;5122546;27;24484;-59
2021/10/05 10:30:35;;;;;;;10.13;9.07;;;;;;;;;;5123159;27;24396;-60
2021/10/05 10:33:01;;;;;;;11.83;10.73;;;;;;;;;;5119204;27;24420;-59
2021/10/05 10:35:27;;;;;;;13.27;12.18;;;;;;;;;;5118941;27;24429;-60
2021/10/05 10:37:53;;;;;;;11.73;10.73;;;;;;;;;;5122691;27;24397;-60
2021/10/05 10:40:19;;;;;;;12.80;11.70;;;;;;;;;;5124733;27;24452;-60
2021/10/05 10:42:44;;;;;;;11.02;10.00;;;;;;;;;;5123203;27;24836;-60
2021/10/05 10:45:17;;;;;;;12.88;11.77;;;;;;;;;;5122533;27;24972;-60
2021/10/05 10:47:43;;;;;;;11.27;10.30;;;;;;;;;;5120386;27;24552;-59
2021/10/05 10:50:09;;;;;;;12.38;11.27;;;;;;;;;;5120450;27;24440;-60
2021/10/05 10:52:36;;;;;;;10.95;10.05;;;;;;;;;;5121235;27;24436;-59
2021/10/05 10:55:02;;;;;;;12.10;11.00;;;;;;;;;;5105953;27;24489;-59
2021/10/05 10:57:50;;;;;;;11.63;10.73;;;;;;;;;;5124461;27;24472;-58
2021/10/05 11:00:16;;;;;;;12.05;11.15;;;;;;;;;;5108433;27;24481;-59
2021/10/05 11:02:42;;;;;;;14.20;13.10;;;;;;;;;;5120058;27;24456;-58
2021/10/05 11:05:07;;;;;;;13.50;12.50;;;;;;;;;;5119003;27;24795;-59
2021/10/05 11:07:32;;;;;;;13.90;12.80;;;;;;;;;;5120191;27;24735;-59
2021/10/05 11:09:58;;;;;;;16.35;14.95;;;;;;;;;;5124266;27;25498;-60
2021/10/05 11:12:23;;;;;;;13.97;12.87;;;;;;;;;;5124050;27;24385;-60
2021/10/05 11:14:48;;;;;;;12.07;11.18;;;;;;;;;;5121993;27;24409;-60
2021/10/05 11:17:13;;;;;;;14.98;13.77;;;;;;;;;;5118078;27;24901;-60
2021/10/05 11:19:42;;;;;;;16.58;15.18;;;;;;;;;;5118208;27;24420;-60
2021/10/05 11:22:08;;;;;;;14.30;13.20;;;;;;;;;;5122156;27;24404;-60
2021/10/05 11:24:40;;;;;;;15.57;14.38;;;;;;;;;;5123863;27;24904;-60
2021/10/05 11:27:09;;;;;;;14.15;13.05;;;;;;;;;;5123275;27;24491;-60
2021/10/05 11:29:35;;;;;;;16.58;15.18;;;;;;;;;;5124030;27;24396;-61
2021/10/05 11:32:02;;;;;;;14.10;13.10;;;;;;;;;;5118370;27;24886;-61
2021/10/05 11:34:27;;;;;;;17.67;16.27;;;;;;;;;;5118055;27;24516;-60
2021/10/05 11:36:53;;;;;;;16.50;15.20;;;;;;;;;;5117709;27;24514;-61
2021/10/05 11:39:28;;;;;;;16.93;15.53;;;;;;;;;;5123276;27;24948;-60
2021/10/05 11:41:55;;;;;;;18.25;16.85;;;;;;;;;;5121869;27;24401;-60
2021/10/05 11:44:22;;;;;;;13.70;12.70;;;;;;;;;;5123739;27;24664;-60
2021/10/05 11:47:07;;;;;;;17.10;15.70;;;;;;;;;;5118303;27;24373;-59
2021/10/05 11:49:34;;;;;;;16.58;15.27;;;;;;;;;;5119362;27;24455;-60
2021/10/05 11:52:00;;;;;;;16.10;14.80;;;;;;;;;;5118339;27;24423;-60
2021/10/05 11:54:26;;;;;;;16.77;15.48;;;;;;;;;;5118491;27;24852;-59
2021/10/05 11:56:52;;;;;;;17.33;15.90;;;;;;;;;;5121796;27;24664;-60
2021/10/05 11:59:26;;;;;;;14.80;13.70;;;;;;;;;;5123332;27;24504;-60
2021/10/05 12:01:57;;;;;;;15.02;13.90;;;;;;;;;;5119256;27;24413;-59
2021/10/05 12:04:22;;;;;;;15.27;14.15;;;;;;;;;;5118096;27;24445;-59
2021/10/05 12:06:52;;;;;;;14.90;13.70;;;;;;;;;;5120049;27;24385;-60
2021/10/05 12:09:24;;;;;;;13.27;12.27;;;;;;;;;;5121233;27;24744;-60
2021/10/05 12:11:49;;;;;;;17.35;15.95;;;;;;;;;;5123273;27;24456;-59
2021/10/05 12:14:16;;;;;;;14.67;13.57;;;;;;;;;;5123039;27;25156;-59
2021/10/05 12:16:52;;;;;;;13.82;12.73;;;;;;;;;;5121941;28;24508;-59
2021/10/05 12:19:22;;;;;;;14.63;13.43;;;;;;;;;;5117418;28;25032;-60
2021/10/05 12:21:50;;;;;;;15.18;13.88;;;;;;;;;;5117500;28;24458;-59
2021/10/05 12:24:15;;;;;;;15.35;14.05;;;;;;;;;;5121492;28;24474;-58
2021/10/05 12:26:53;;;;;;;16.30;14.80;;;;;;;;;;5122054;28;24560;-58
2021/10/05 12:29:18;;;;;;;16.30;14.90;;;;;;;;;;5122981;28;24396;-59
2021/10/05 12:31:55;;;;;;;17.58;16.08;;;;;;;;;;5121746;28;24421;-59
2021/10/05 12:34:20;;;;;;;16.33;14.93;;;;;;;;;;5119057;28;24845;-60
2021/10/05 12:36:47;;;;;;;17.17;15.68;;;;;;;;;;5118973;28;24389;-60
2021/10/05 12:39:13;;;;;;;16.67;15.27;;;;;;;;;;5121057;28;24427;-59
2021/10/05 12:41:39;;;;;;;15.77;14.38;;;;;;;;;;5121537;28;24388;-61
2021/10/05 12:44:15;;;;;;;16.50;14.93;;;;;;;;;;5123534;28;24812;-59
2021/10/05 12:46:40;;;;;;;16.63;15.13;;;;;;;;;;5121474;28;24772;-59
2021/10/05 12:49:11;;;;;;;14.80;13.50;;;;;;;;;;5118985;27;25244;-59
2021/10/05 12:51:43;;;;;;;15.23;13.63;;;;;;;;;;5123959;27;25197;-61
2021/10/05 12:54:09;;;;;;;15.77;14.40;;;;;;;;;;5125676;27;24984;-59
2021/10/05 12:56:35;;;;;;;20.20;18.40;;;;;;;;;;5127232;27;24405;-59
2021/10/05 12:59:00;;;;;;;21.65;19.65;;;;;;;;;;5124307;27;24868;-60
2021/10/05 13:01:26;;;;;;;18.75;17.05;;;;;;;;;;5126614;27;24504;-60
2021/10/05 13:03:51;;;;;;;16.00;14.60;;;;;;;;;;5121302;27;24450;-58
2021/10/05 13:06:17;;;;;;;16.33;14.73;;;;;;;;;;5121404;27;24436;-61
2021/10/05 13:08:45;;;;;;;16.70;15.20;;;;;;;;;;5125205;27;24385;-61
2021/10/05 13:11:10;;;;;;;14.02;12.90;;;;;;;;;;5126513;27;24448;-61
2021/10/05 13:13:35;;;;;;;14.40;13.10;;;;;;;;;;5126957;27;24419;-61
2021/10/05 13:16:01;;;;;;;13.50;12.30;;;;;;;;;;5124824;27;24423;-61
2021/10/05 13:18:26;;;;;;;14.05;12.95;;;;;;;;;;5126515;27;24433;-61
2021/10/05 13:20:51;;;;;;;13.02;11.88;;;;;;;;;;5121170;27;24448;-61
2021/10/05 13:23:20;;;;;;;13.98;12.77;;;;;;;;;;5120745;27;24420;-61
2021/10/05 13:25:45;;;;;;;11.30;10.40;;;;;;;;;;5123249;27;24496;-61
2021/10/05 13:28:10;;;;;;;10.00;9.20;;;;;;;;;;5108096;27;24932;-61
2021/10/05 13:30:36;;;;;;;9.60;8.80;;;;;;;;;;5126519;27;24404;-60
2021/10/05 13:33:01;;;;;;;9.17;8.37;;;;;;;;;;5124232;27;24418;-60
2021/10/05 13:35:26;;;;;;;8.10;7.40;;;;;;;;;;5122516;27;24443;-61
2021/10/05 13:37:51;;;;;;;8.00;7.40;;;;;;;;;;5120102;27;24416;-60
2021/10/05 13:40:17;;;;;;;6.70;6.20;;;;;;;;;;5123739;27;24465;-60
2021/10/05 13:42:42;;;;;;;6.30;5.80;;;;;;;;;;5124427;27;24389;-60
2021/10/05 13:45:08;;;;;;;7.20;6.70;;;;;;;;;;5126349;27;24744;-60
2021/10/05 13:47:33;;;;;;;6.13;5.63;;;;;;;;;;5125821;27;24405;-60
2021/10/05 13:49:58;;;;;;;7.80;7.20;;;;;;;;;;5120497;27;24397;-59
2021/10/05 13:52:24;;;;;;;7.20;6.70;;;;;;;;;;5120538;27;24745;-59
2021/10/05 13:54:49;;;;;;;6.30;5.80;;;;;;;;;;5124103;27;24424;-59
2021/10/05 13:57:14;;;;;;;8.53;7.73;;;;;;;;;;5125369;27;24417;-60
2021/10/05 13:59:39;;;;;;;6.30;5.80;;;;;;;;;;5124001;27;25309;-60
2021/10/05 14:02:04;;;;;;;5.60;5.20;;;;;;;;;;5125404;27;24584;-60
2021/10/05 14:04:29;;;;;;;5.90;5.43;;;;;;;;;;5123946;27;24393;-60
2021/10/05 14:06:55;;;;;;;7.00;6.50;;;;;;;;;;5120289;27;24413;-59
2021/10/05 14:09:20;;;;;;;8.30;7.70;;;;;;;;;;5119643;27;24417;-59
2021/10/05 14:11:45;;;;;;;6.90;6.40;;;;;;;;;;5122151;27;24401;-60
2021/10/05 14:14:10;;;;;;;5.90;5.40;;;;;;;;;;5125813;27;24791;-60
2021/10/05 14:16:36;;;;;;;7.50;6.90;;;;;;;;;;5125842;27;24405;-60
2021/10/05 14:19:02;;;;;;;6.90;6.40;;;;;;;;;;5121923;27;24452;-60
2021/10/05 14:21:27;;;;;;;8.43;7.72;;;;;;;;;;5121605;27;24425;-60
2021/10/05 14:23:52;;;;;;;6.10;5.70;;;;;;;;;;5120048;27;24393;-59
2021/10/05 14:26:18;;;;;;;8.13;7.50;;;;;;;;;;5123782;27;24392;-60
2021/10/05 14:28:43;;;;;;;8.38;7.70;;;;;;;;;;5121698;27;24393;-61
2021/10/05 14:31:09;;;;;;;6.50;6.00;;;;;;;;;;5125332;27;25334;-61
2021/10/05 14:33:34;;;;;;;6.70;6.20;;;;;;;;;;5124913;27;24546;-60